Time;durP1;ratioP1;P1;durP2;ratioP2;P2;SDS_P1;SDS_P2;PMS_P1;PMS_P2;Temp;Humidity;BMP_temperature;BMP_pressure;BME280_temperature;BME280_humidity;BME280_pressure;Samples;Min_cycle;Max_cycle;Signal;HPM_P1;HPM_P2
2023/08/06 00:02:09;;;;;;;10.07;8.37;;;;;;;;;;10318823;28;20051;-87
2023/08/06 00:07:25;;;;;;;7.65;6.80;;;;;;;;;;10336414;28;20106;-89
2023/08/06 00:12:25;;;;;;;7.10;6.18;;;;;;;;;;10338780;28;20081;-88
2023/08/06 00:17:26;;;;;;;6.20;4.43;;;;;;;;;;10338986;28;20034;-90
2023/08/06 00:22:30;;;;;;;4.35;3.95;;;;;;;;;;10318607;28;20101;-85
2023/08/06 00:27:30;;;;;;;5.30;4.00;;;;;;;;;;10323544;28;20046;-90
2023/08/06 00:32:31;;;;;;;4.47;3.80;;;;;;;;;;10335699;28;20042;-87
2023/08/06 00:37:32;;;;;;;4.60;3.88;;;;;;;;;;10338089;28;20039;-88
2023/08/06 00:42:38;;;;;;;4.72;3.72;;;;;;;;;;10332011;28;20058;-88
2023/08/06 00:47:42;;;;;;;4.40;3.72;;;;;;;;;;10335505;28;20046;-90
2023/08/06 00:52:42;;;;;;;4.20;3.80;;;;;;;;;;10328589;28;20046;-87
2023/08/06 00:57:43;;;;;;;5.65;4.00;;;;;;;;;;10332685;28;20044;-88
2023/08/06 01:02:43;;;;;;;4.22;3.80;;;;;;;;;;10340496;28;20054;-86
2023/08/06 01:07:44;;;;;;;4.40;3.88;;;;;;;;;;10354453;28;20044;-92
2023/08/06 01:13:03;;;;;;;5.45;3.97;;;;;;;;;;10367860;28;20046;-88
2023/08/06 01:18:04;;;;;;;4.93;4.03;;;;;;;;;;10350865;28;20366;-86
2023/08/06 01:23:04;;;;;;;4.63;4.13;;;;;;;;;;10337872;28;20062;-85
2023/08/06 01:28:11;;;;;;;4.90;4.10;;;;;;;;;;10324234;28;20057;-84
2023/08/06 01:33:18;;;;;;;4.57;4.07;;;;;;;;;;10343221;28;20293;-86
2023/08/06 01:38:19;;;;;;;4.50;3.78;;;;;;;;;;10346852;28;20077;-88
2023/08/06 01:43:20;;;;;;;4.70;4.30;;;;;;;;;;10337903;28;20233;-85
2023/08/06 01:48:25;;;;;;;6.47;4.43;;;;;;;;;;10339415;28;20046;-86
2023/08/06 01:53:31;;;;;;;5.20;4.40;;;;;;;;;;10340099;28;20058;-86
2023/08/06 01:58:36;;;;;;;6.38;4.80;;;;;;;;;;10351829;28;20026;-87
2023/08/06 02:03:37;;;;;;;4.68;4.25;;;;;;;;;;10363702;28;20614;-90
2023/08/06 02:08:38;;;;;;;5.53;4.73;;;;;;;;;;10363992;28;20042;-90
2023/08/06 02:13:39;;;;;;;4.55;4.15;;;;;;;;;;10379521;28;20298;-87
2023/08/06 02:18:40;;;;;;;5.00;4.20;;;;;;;;;;10364715;28;20073;-85
2023/08/06 02:23:41;;;;;;;5.55;4.32;;;;;;;;;;10367074;28;20076;-89
2023/08/06 02:28:42;;;;;;;6.93;4.47;;;;;;;;;;10364888;28;20084;-89
2023/08/06 02:33:43;;;;;;;5.10;4.35;;;;;;;;;;10351777;28;20465;-87
2023/08/06 02:38:46;;;;;;;4.80;4.28;;;;;;;;;;10350140;28;20034;-89
2023/08/06 02:43:46;;;;;;;5.15;4.18;;;;;;;;;;10333772;28;20210;-87
2023/08/06 02:48:47;;;;;;;6.23;4.67;;;;;;;;;;10348126;28;20209;-86
2023/08/06 02:53:48;;;;;;;4.90;3.97;;;;;;;;;;10347385;28;20289;-87
2023/08/06 02:58:50;;;;;;;5.10;4.10;;;;;;;;;;10347600;28;20073;-85
2023/08/06 03:04:06;;;;;;;7.20;4.28;;;;;;;;;;10319187;28;20054;-88
2023/08/06 03:09:12;;;;;;;6.80;4.40;;;;;;;;;;10326816;28;20038;-86
2023/08/06 03:14:18;;;;;;;5.03;4.25;;;;;;;;;;10331316;28;20466;-85
2023/08/06 03:19:28;;;;;;;5.45;4.32;;;;;;;;;;10335074;28;20050;-86
2023/08/06 03:24:49;;;;;;;4.60;4.00;;;;;;;;;;10349337;28;20149;-86
2023/08/06 03:29:53;;;;;;;5.72;4.07;;;;;;;;;;10340932;28;20131;-86
2023/08/06 03:34:59;;;;;;;4.82;4.10;;;;;;;;;;10323927;28;20081;-86
2023/08/06 03:40:08;;;;;;;5.93;4.70;;;;;;;;;;10331441;28;20085;-88
2023/08/06 03:45:10;;;;;;;6.00;5.05;;;;;;;;;;10325839;28;20113;-87
2023/08/06 03:50:12;;;;;;;8.90;5.28;;;;;;;;;;10338282;28;20038;-87
2023/08/06 03:55:15;;;;;;;7.07;4.90;;;;;;;;;;10342130;28;20046;-86
2023/08/06 04:00:16;;;;;;;5.93;4.93;;;;;;;;;;10324478;28;20162;-88
2023/08/06 04:10:56;;;;;;;7.68;5.80;;;;;;;;;;10346285;28;20050;-86
2023/08/06 04:16:00;;;;;;;8.27;5.47;;;;;;;;;;10340831;28;20562;-88
2023/08/06 04:21:01;;;;;;;5.63;5.03;;;;;;;;;;10345752;28;20122;-87
2023/08/06 04:26:03;;;;;;;8.73;5.70;;;;;;;;;;10335854;28;20054;-89
2023/08/06 04:31:12;;;;;;;7.38;5.00;;;;;;;;;;10345270;28;20026;-89
2023/08/06 04:36:16;;;;;;;5.70;5.07;;;;;;;;;;10388555;28;20075;-88
2023/08/06 04:41:19;;;;;;;8.70;4.82;;;;;;;;;;10384430;28;20061;-91
2023/08/06 04:46:33;;;;;;;6.57;5.22;;;;;;;;;;10397838;28;20049;-91
2023/08/06 04:51:33;;;;;;;6.88;5.60;;;;;;;;;;10371095;28;20038;-92
2023/08/06 04:56:36;;;;;;;8.73;6.32;;;;;;;;;;10343204;28;20066;-89
2023/08/06 05:01:38;;;;;;;8.07;6.75;;;;;;;;;;10340011;28;20165;-90
2023/08/06 05:06:39;;;;;;;9.33;6.73;;;;;;;;;;10350892;28;20133;-88
2023/08/06 05:11:39;;;;;;;8.73;6.10;;;;;;;;;;10355623;28;20380;-87
2023/08/06 05:16:40;;;;;;;7.03;5.38;;;;;;;;;;10351480;28;20557;-92
2023/08/06 05:21:44;;;;;;;7.75;5.85;;;;;;;;;;10391468;28;20042;-91
2023/08/06 05:26:49;;;;;;;8.18;6.05;;;;;;;;;;10379705;28;20066;-86
2023/08/06 05:31:57;;;;;;;6.53;5.55;;;;;;;;;;10347025;28;20401;-86
2023/08/06 05:36:58;;;;;;;14.80;6.07;;;;;;;;;;10326526;28;20084;-89
2023/08/06 05:42:00;;;;;;;8.57;5.75;;;;;;;;;;10338843;28;20054;-88
2023/08/06 05:47:02;;;;;;;8.43;5.53;;;;;;;;;;10340784;28;20060;-88
2023/08/06 05:52:06;;;;;;;6.35;5.63;;;;;;;;;;10328898;28;20773;-90
2023/08/06 05:57:07;;;;;;;6.88;5.90;;;;;;;;;;10356286;28;20042;-88
2023/08/06 06:02:09;;;;;;;5.55;5.05;;;;;;;;;;10373648;28;20141;-91
2023/08/06 06:07:13;;;;;;;6.63;5.43;;;;;;;;;;10387100;28;20085;-91
2023/08/06 06:12:16;;;;;;;7.47;5.72;;;;;;;;;;10370112;28;20209;-89
2023/08/06 06:17:16;;;;;;;6.83;5.73;;;;;;;;;;10335615;28;20082;-88
2023/08/06 06:22:19;;;;;;;7.95;5.72;;;;;;;;;;10349418;28;20868;-91
2023/08/06 06:27:19;;;;;;;8.00;6.05;;;;;;;;;;10358589;28;20105;-88
2023/08/06 06:32:22;;;;;;;8.70;5.85;;;;;;;;;;10349312;28;20077;-90
2023/08/06 06:37:28;;;;;;;5.97;5.35;;;;;;;;;;10348389;28;20164;-90
2023/08/06 06:42:31;;;;;;;6.43;5.57;;;;;;;;;;10330457;28;20125;-88
2023/08/06 06:47:36;;;;;;;6.57;5.47;;;;;;;;;;10338919;28;20073;-90
2023/08/06 06:52:37;;;;;;;7.50;5.70;;;;;;;;;;10357878;28;20073;-89
2023/08/06 06:57:38;;;;;;;7.35;5.18;;;;;;;;;;10367425;28;20047;-89
2023/08/06 07:02:39;;;;;;;7.57;5.68;;;;;;;;;;10381225;28;20045;-90
2023/08/06 07:07:45;;;;;;;6.32;5.72;;;;;;;;;;10369624;28;20046;-89
2023/08/06 07:12:48;;;;;;;6.55;5.07;;;;;;;;;;10363372;28;20061;-89
2023/08/06 07:17:48;;;;;;;8.88;5.80;;;;;;;;;;10376511;28;20050;-91
2023/08/06 07:22:50;;;;;;;6.20;5.60;;;;;;;;;;10345974;28;20122;-88
2023/08/06 07:27:51;;;;;;;6.40;5.47;;;;;;;;;;10378801;28;20064;-89
2023/08/06 07:32:53;;;;;;;7.15;5.75;;;;;;;;;;10377033;28;20109;-91
2023/08/06 07:37:54;;;;;;;5.97;5.40;;;;;;;;;;10365043;28;20038;-93
2023/08/06 07:42:55;;;;;;;7.10;5.82;;;;;;;;;;10380155;28;20061;-88
2023/08/06 07:47:55;;;;;;;7.20;5.30;;;;;;;;;;10345322;28;20042;-88
2023/08/06 07:52:55;;;;;;;6.73;4.97;;;;;;;;;;10371607;28;20095;-89
2023/08/06 07:57:59;;;;;;;4.82;4.38;;;;;;;;;;10360338;28;20097;-89
2023/08/06 08:03:36;;;;;;;4.80;3.85;;;;;;;;;;10332553;28;20062;-88
2023/08/06 08:08:38;;;;;;;3.33;2.45;;;;;;;;;;10342163;28;20061;-92
2023/08/06 08:13:39;;;;;;;2.60;2.10;;;;;;;;;;10359590;28;20070;-88
2023/08/06 08:18:39;;;;;;;3.60;1.93;;;;;;;;;;10361856;28;20022;-91
2023/08/06 08:23:43;;;;;;;1.80;1.33;;;;;;;;;;10345533;28;21007;-89
2023/08/06 08:28:45;;;;;;;1.73;1.40;;;;;;;;;;10363596;28;20042;-92
2023/08/06 08:33:47;;;;;;;1.70;0.90;;;;;;;;;;10380137;28;20054;-87
2023/08/06 08:38:49;;;;;;;1.30;0.80;;;;;;;;;;10392625;28;20026;-91
2023/08/06 08:43:51;;;;;;;0.90;0.50;;;;;;;;;;10391863;28;20369;-90
2023/08/06 08:48:53;;;;;;;0.80;0.80;;;;;;;;;;10387642;28;20066;-89
2023/08/06 08:54:11;;;;;;;1.70;0.80;;;;;;;;;;10348408;28;20061;-91
2023/08/06 08:59:12;;;;;;;0.65;0.65;;;;;;;;;;10348762;28;20050;-90
2023/08/06 09:04:14;;;;;;;1.10;1.00;;;;;;;;;;10351811;28;20058;-86
2023/08/06 09:09:25;;;;;;;1.38;0.60;;;;;;;;;;10343154;28;20034;-91
2023/08/06 09:25:28;;;;;;;1.95;0.70;;;;;;;;;;10383156;28;20057;-90
2023/08/06 09:41:21;;;;;;;0.95;0.60;;;;;;;;;;10429735;28;20041;-88
2023/08/06 09:46:24;;;;;;;1.48;0.65;;;;;;;;;;10415710;28;20057;-90
2023/08/06 09:56:49;;;;;;;0.95;0.68;;;;;;;;;;10365145;28;20046;-93
2023/08/06 10:07:27;;;;;;;1.30;0.60;;;;;;;;;;10819906;23;20048;-86
2023/08/06 10:28:50;;;;;;;0.70;0.65;;;;;;;;;;10800449;22;20554;-93
2023/08/06 10:45:02;;;;;;;0.57;0.50;;;;;;;;;;11371759;22;1096593;-90
2023/08/06 10:50:23;;;;;;;1.60;1.30;;;;;;;;;;10866716;23;20050;-92
2023/08/06 10:55:32;;;;;;;0.82;0.82;;;;;;;;;;10382713;28;20038;-84
2023/08/06 11:00:34;;;;;;;0.40;0.40;;;;;;;;;;10390035;28;20286;-91
2023/08/06 11:06:04;;;;;;;1.05;0.70;;;;;;;;;;10375786;28;20077;-92
2023/08/06 11:11:34;;;;;;;0.90;0.77;;;;;;;;;;10354232;28;20124;-92
2023/08/06 11:22:24;;;;;;;0.50;0.50;;;;;;;;;;10628094;23;20054;-92
2023/08/06 11:27:50;;;;;;;0.80;0.80;;;;;;;;;;10526496;22;20053;-89
2023/08/06 11:33:11;;;;;;;1.35;0.70;;;;;;;;;;10733938;22;20150;-89
2023/08/06 11:38:32;;;;;;;0.60;0.60;;;;;;;;;;10478364;23;20062;-87
2023/08/06 11:43:54;;;;;;;1.27;1.17;;;;;;;;;;10577889;22;20038;-91
2023/08/06 12:01:12;;;;;;;1.35;0.85;;;;;;;;;;11638270;23;20062;-93
2023/08/06 12:22:40;;;;;;;0.43;0.40;;;;;;;;;;10501555;22;20085;-91
2023/08/06 12:33:05;;;;;;;1.65;1.00;;;;;;;;;;10423959;23;20092;-82
2023/08/06 12:38:06;;;;;;;1.15;1.02;;;;;;;;;;10365290;28;20038;-87
2023/08/06 12:43:22;;;;;;;1.40;1.20;;;;;;;;;;10354615;28;20057;-86
2023/08/06 12:53:37;;;;;;;1.02;0.90;;;;;;;;;;10418823;28;20026;-88
2023/08/06 12:58:42;;;;;;;1.45;0.98;;;;;;;;;;10554864;23;20580;-89
2023/08/06 13:09:11;;;;;;;1.83;0.70;;;;;;;;;;6500875;22;20089;-90
2023/08/06 13:14:13;;;;;;;0.63;0.63;;;;;;;;;;10395006;28;20122;-89
2023/08/06 13:19:16;;;;;;;0.50;0.50;;;;;;;;;;10428607;28;20101;-89
2023/08/06 13:24:19;;;;;;;0.60;0.60;;;;;;;;;;10428504;28;20045;-91
2023/08/06 13:29:24;;;;;;;1.20;0.60;;;;;;;;;;10436084;28;20062;-91
2023/08/06 13:34:28;;;;;;;1.42;0.60;;;;;;;;;;10416036;28;20065;-88
2023/08/06 13:39:32;;;;;;;0.45;0.40;;;;;;;;;;10393113;28;20626;-88
2023/08/06 13:44:35;;;;;;;1.35;0.40;;;;;;;;;;10391295;28;20127;-86
2023/08/06 13:49:43;;;;;;;0.40;0.40;;;;;;;;;;10424646;28;20130;-91
2023/08/06 13:54:44;;;;;;;0.40;0.40;;;;;;;;;;10397096;28;20074;-89
2023/08/06 14:00:05;;;;;;;0.37;0.37;;;;;;;;;;10832687;22;20042;-90
2023/08/06 14:05:35;;;;;;;0.40;0.40;;;;;;;;;;10618847;22;20285;-89
2023/08/06 14:10:41;;;;;;;0.90;0.50;;;;;;;;;;10437197;23;20061;-89
2023/08/06 14:15:46;;;;;;;1.00;0.40;;;;;;;;;;10424171;28;20033;-86
2023/08/06 14:20:52;;;;;;;2.90;0.60;;;;;;;;;;10489242;22;20072;-90
2023/08/06 14:42:04;;;;;;;1.02;0.60;;;;;;;;;;10293414;28;20051;-90
2023/08/06 14:47:25;;;;;;;;;;;;;;;;;;;;;
2023/08/06 14:52:31;;;;;;;0.93;0.70;;;;;;;;;;10293149;28;20062;-86
2023/08/06 14:57:33;;;;;;;2.67;0.70;;;;;;;;;;10304605;28;20142;-90
2023/08/06 15:02:51;;;;;;;0.98;0.73;;;;;;;;;;10297916;28;20043;-87
2023/08/06 15:07:55;;;;;;;0.70;0.55;;;;;;;;;;10253196;28;20055;-89
2023/08/06 15:29:22;;;;;;;1.17;0.80;;;;;;;;;;9430707;23;19927;-87
2023/08/06 15:34:25;;;;;;;1.05;0.70;;;;;;;;;;10709736;22;20066;-92
2023/08/06 15:39:34;;;;;;;0.90;0.73;;;;;;;;;;11008523;23;20041;-89
2023/08/06 15:44:41;;;;;;;1.05;0.70;;;;;;;;;;10405876;28;20050;-90
2023/08/06 15:49:43;;;;;;;1.00;0.60;;;;;;;;;;10595318;22;20042;-89
2023/08/06 15:55:05;;;;;;;1.08;0.70;;;;;;;;;;10786816;22;20069;-89
2023/08/06 17:16:01;;;;;;;0.60;0.60;;;;;;;;;;11178488;23;20061;-90
2023/08/06 17:21:21;;;;;;;0.57;0.50;;;;;;;;;;10372150;28;20038;-89
2023/08/06 17:26:58;;;;;;;1.20;1.00;;;;;;;;;;10414232;28;20125;-91
2023/08/06 17:37:34;;;;;;;1.03;0.93;;;;;;;;;;10432469;23;20058;-89
2023/08/06 17:42:35;;;;;;;0.82;0.80;;;;;;;;;;10382826;28;20057;-89
2023/08/06 17:47:45;;;;;;;1.33;0.80;;;;;;;;;;10382735;28;20062;-89
2023/08/06 17:52:52;;;;;;;2.25;0.70;;;;;;;;;;10945698;22;20054;-92
2023/08/06 17:58:22;;;;;;;2.33;0.93;;;;;;;;;;10402478;28;20042;-91
2023/08/06 18:03:46;;;;;;;1.80;0.73;;;;;;;;;;10409795;28;20323;-89
2023/08/06 18:09:03;;;;;;;0.77;0.50;;;;;;;;;;10401824;28;20046;-93
2023/08/06 18:52:59;;;;;;;0.85;0.70;;;;;;;;;;10411219;28;20049;-87
2023/08/06 18:58:25;;;;;;;1.40;0.80;;;;;;;;;;10407019;23;20466;-87
2023/08/06 19:03:25;;;;;;;1.02;0.90;;;;;;;;;;10356709;28;20168;-85
2023/08/06 19:08:39;;;;;;;1.10;0.60;;;;;;;;;;10404284;28;20065;-87
2023/08/06 19:14:01;;;;;;;1.10;1.00;;;;;;;;;;10399162;28;20048;-87
2023/08/06 19:24:44;;;;;;;1.38;0.40;;;;;;;;;;10387807;28;20053;-85
2023/08/06 19:35:03;;;;;;;0.70;0.60;;;;;;;;;;10393407;28;20049;-88
2023/08/06 19:40:08;;;;;;;0.95;0.50;;;;;;;;;;10370957;28;20042;-85
2023/08/06 19:45:10;;;;;;;1.10;0.85;;;;;;;;;;10410166;28;20054;-87
2023/08/06 19:50:12;;;;;;;1.08;0.55;;;;;;;;;;10410824;28;20034;-86
2023/08/06 19:55:19;;;;;;;0.80;0.50;;;;;;;;;;10398066;28;20145;-87
2023/08/06 20:00:19;;;;;;;1.33;1.00;;;;;;;;;;10361495;28;20056;-88
2023/08/06 20:05:22;;;;;;;1.10;1.00;;;;;;;;;;10393512;28;20065;-88
2023/08/06 20:10:23;;;;;;;1.15;0.82;;;;;;;;;;10377343;28;20112;-86
2023/08/06 20:15:51;;;;;;;1.00;0.75;;;;;;;;;;10402959;28;20042;-87
2023/08/06 20:33:23;;;;;;;2.15;0.90;;;;;;;;;;10406709;28;21886;-89
2023/08/06 20:38:51;;;;;;;2.38;0.85;;;;;;;;;;10396560;28;20043;-87
2023/08/06 20:49:13;;;;;;;2.25;0.90;;;;;;;;;;10392323;28;20054;-84
2023/08/06 20:54:22;;;;;;;1.05;0.85;;;;;;;;;;10386236;28;20148;-84
2023/08/06 20:59:23;;;;;;;0.75;0.75;;;;;;;;;;10403473;28;20053;-84
2023/08/06 21:04:26;;;;;;;1.17;0.90;;;;;;;;;;10383457;28;20058;-86
2023/08/06 21:09:26;;;;;;;2.05;0.90;;;;;;;;;;10410875;28;20153;-87
2023/08/06 21:14:29;;;;;;;1.08;0.98;;;;;;;;;;10398118;28;20172;-85
2023/08/06 21:19:29;;;;;;;0.80;0.80;;;;;;;;;;10431667;28;20046;-85
2023/08/06 21:24:31;;;;;;;1.10;1.00;;;;;;;;;;10423026;28;20041;-89
2023/08/06 21:29:54;;;;;;;1.10;1.00;;;;;;;;;;10413018;28;20310;-85
2023/08/06 21:35:09;;;;;;;1.33;1.20;;;;;;;;;;10390291;28;20409;-86
2023/08/06 21:40:23;;;;;;;3.55;1.40;;;;;;;;;;10386066;28;20300;-90
2023/08/06 21:45:25;;;;;;;1.88;1.20;;;;;;;;;;10384662;28;20384;-86
2023/08/06 21:50:28;;;;;;;2.28;1.15;;;;;;;;;;10372609;28;20049;-87
2023/08/06 21:55:34;;;;;;;1.52;1.02;;;;;;;;;;10392640;28;20418;-86
2023/08/06 22:00:36;;;;;;;2.88;1.95;;;;;;;;;;10387916;28;20046;-86
2023/08/06 22:05:38;;;;;;;1.27;1.13;;;;;;;;;;10380710;28;20112;-85
2023/08/06 22:10:45;;;;;;;1.70;1.08;;;;;;;;;;10374421;28;20046;-85
2023/08/06 22:15:53;;;;;;;1.45;1.00;;;;;;;;;;10401042;28;20149;-84
2023/08/06 22:20:57;;;;;;;1.40;1.10;;;;;;;;;;10384543;28;20060;-84
2023/08/06 22:26:02;;;;;;;0.90;0.90;;;;;;;;;;10388681;28;20058;-83
2023/08/06 22:31:05;;;;;;;0.93;0.80;;;;;;;;;;10400850;28;20037;-83
2023/08/06 22:36:05;;;;;;;1.20;1.10;;;;;;;;;;10398286;28;20544;-85
2023/08/06 22:41:08;;;;;;;;;;;;;;;;;;10381460;28;20288;-82
2023/08/06 22:46:08;;;;;;;1.53;0.90;;;;;;;;;;10376867;28;19925;-82
2023/08/06 22:51:10;;;;;;;1.40;0.75;;;;;;;;;;10388638;28;20395;-84
2023/08/06 22:56:11;;;;;;;1.73;1.00;;;;;;;;;;10387089;28;20913;-84
2023/08/06 23:01:12;;;;;;;2.03;0.80;;;;;;;;;;10354871;28;20042;-86
2023/08/06 23:06:13;;;;;;;0.60;0.60;;;;;;;;;;10389331;28;20519;-86
2023/08/06 23:11:14;;;;;;;0.70;0.70;;;;;;;;;;10398546;28;20307;-84
2023/08/06 23:16:15;;;;;;;1.48;0.80;;;;;;;;;;10377368;28;20042;-84
2023/08/06 23:21:17;;;;;;;1.02;0.80;;;;;;;;;;10374250;28;20136;-85
2023/08/06 23:26:19;;;;;;;0.82;0.60;;;;;;;;;;10373569;28;20050;-92
2023/08/06 23:31:20;;;;;;;1.35;0.88;;;;;;;;;;10370396;28;20164;-82
2023/08/06 23:36:21;;;;;;;1.00;0.80;;;;;;;;;;10358430;28;20104;-85
2023/08/06 23:41:23;;;;;;;1.17;0.93;;;;;;;;;;10387481;28;20037;-85
2023/08/06 23:46:24;;;;;;;1.05;0.95;;;;;;;;;;10411175;28;20165;-85
2023/08/06 23:51:31;;;;;;;0.73;0.73;;;;;;;;;;10404575;28;20064;-86
2023/08/06 23:56:37;;;;;;;0.95;0.75;;;;;;;;;;10357033;28;20544;-83
